Time;durP1;ratioP1;P1;durP2;ratioP2;P2;SDS_P1;SDS_P2;PMS_P1;PMS_P2;Temp;Humidity;BMP_temperature;BMP_pressure;BME280_temperature;BME280_humidity;BME280_pressure;Samples;Min_cycle;Max_cycle;Signal;HPM_P1;HPM_P2
2022/04/06 00:02:33;;;;;;;4.53;2.33;;;;;;;4.57;89.81;98759.88;738777;1154;114217;-73
2022/04/06 00:17:36;;;;;;;5.10;2.83;;;;;;;4.55;89.57;98767.78;739093;1154;115138;-72
2022/04/06 00:32:38;;;;;;;5.43;3.15;;;;;;;4.49;89.53;98769.15;740144;1153;114928;-71
2022/04/06 00:47:40;;;;;;;18.30;7.00;;;;;;;4.52;89.35;98769.84;739692;1153;114481;-72
2022/04/06 01:02:42;;;;;;;26.08;11.15;;;;;;;4.50;90.26;98768.20;739794;1155;115367;-69
2022/04/06 01:17:45;;;;;;;23.63;11.45;;;;;;;4.50;90.94;98768.20;739773;1155;115600;-73
2022/04/06 01:32:46;;;;;;;16.53;8.65;;;;;;;4.53;90.46;98768.88;740098;1153;115403;-71
2022/04/06 01:47:48;;;;;;;17.95;9.60;;;;;;;4.53;90.68;98763.67;739378;1152;115432;-71
2022/04/06 02:02:52;;;;;;;13.08;7.78;;;;;;;4.53;89.84;98777.50;739016;1155;114742;-70
2022/04/06 02:17:54;;;;;;;34.28;14.50;;;;;;;4.55;90.64;98785.16;739043;1153;114874;-72
2022/04/06 02:32:56;;;;;;;6.00;3.65;;;;;;;4.57;90.74;98791.05;739203;1153;115392;-73
2022/04/06 02:47:58;;;;;;;8.60;2.80;;;;;;;4.49;92.26;98796.91;739351;1154;114677;-72
2022/04/06 03:03:02;;;;;;;5.23;3.00;;;;;;;4.50;91.62;98811.54;739796;1152;115145;-71
2022/04/06 03:18:05;;;;;;;5.13;3.08;;;;;;;4.53;92.21;98826.01;739337;1153;115117;-72
2022/04/06 03:33:09;;;;;;;9.40;3.63;;;;;;;4.53;93.62;98833.80;739089;1155;115004;-71
2022/04/06 03:48:12;;;;;;;6.20;3.03;;;;;;;4.44;93.94;98835.43;739668;1155;115396;-72
2022/04/06 04:03:14;;;;;;;12.30;4.45;;;;;;;4.44;94.41;98851.82;739288;1155;115126;-72
2022/04/06 04:18:16;;;;;;;8.38;3.68;;;;;;;4.52;94.62;98858.16;738929;1153;115333;-72
2022/04/06 04:33:18;;;;;;;7.35;3.75;;;;;;;4.56;94.88;98859.53;739584;1155;114406;-71
2022/04/06 04:48:21;;;;;;;15.70;6.30;;;;;;;4.63;94.93;98860.63;739416;1153;115113;-76
2022/04/06 05:03:23;;;;;;;19.33;8.70;;;;;;;4.72;94.10;98872.83;739020;1155;115180;-76
2022/04/06 05:18:26;;;;;;;13.43;8.70;;;;;;;4.95;95.23;98888.23;739336;1152;114368;-75
2022/04/06 05:33:28;;;;;;;21.53;10.45;;;;;;;5.13;95.02;98910.02;740216;1155;114354;-75
2022/04/06 05:48:31;;;;;;;134.83;91.57;;;;;;;5.28;94.40;98920.04;739490;1153;115134;-72
2022/04/06 06:03:33;;;;;;;21.25;12.45;;;;;;;5.27;95.97;98923.59;739739;1154;114325;-72
2022/04/06 06:18:36;;;;;;;35.45;24.75;;;;;;;5.42;95.62;98931.81;740060;1155;114245;-77
2022/04/06 06:33:38;;;;;;;35.80;20.40;;;;;;;5.58;95.48;98934.72;740609;1153;115706;-72
2022/04/06 06:48:41;;;;;;;20.28;12.43;;;;;;;5.81;95.76;98937.86;740328;1153;114481;-72
2022/04/06 07:03:43;;;;;;;14.98;10.53;;;;;;;5.83;95.28;98930.74;740239;1155;114104;-73
2022/04/06 07:18:45;;;;;;;18.58;10.98;;;;;;;6.14;94.80;98924.58;739586;1153;115601;-75
2022/04/06 07:33:47;;;;;;;32.13;17.33;;;;;;;6.07;93.57;98931.28;739764;1153;113993;-74
2022/04/06 07:48:50;;;;;;;114.73;43.08;;;;;;;6.04;93.10;98927.17;739859;1154;114438;-74
2022/04/06 08:03:52;;;;;;;46.90;17.55;;;;;;;5.90;92.10;98948.39;739995;1155;114336;-74
2022/04/06 08:18:55;;;;;;;21.33;11.13;;;;;;;5.99;91.92;98937.18;739436;1153;114113;-74
2022/04/06 08:33:57;;;;;;;19.55;10.78;;;;;;;6.01;92.46;98931.86;739841;1155;114630;-75
2022/04/06 08:49:01;;;;;;;20.93;9.07;;;;;;;6.01;93.67;98926.66;739705;1154;114130;-75
2022/04/06 09:04:04;;;;;;;12.83;7.40;;;;;;;6.29;94.85;98915.33;739671;1153;115118;-75
2022/04/06 09:19:27;;;;;;;14.03;7.53;;;;;;;6.30;94.63;98903.96;740770;1153;115111;-74
2022/04/06 09:34:29;;;;;;;25.67;12.03;;;;;;;6.42;95.22;98883.77;740100;1152;114483;-75
2022/04/06 09:49:32;;;;;;;17.63;9.13;;;;;;;6.50;95.68;98880.45;739849;1153;114955;-75
2022/04/06 10:04:34;;;;;;;124.10;43.13;;;;;;;6.56;96.08;98876.45;740643;1152;113904;-75
2022/04/06 10:19:42;;;;;;;57.25;27.35;;;;;;;6.53;96.59;98863.72;740084;1154;115163;-77
2022/04/06 10:34:44;;;;;;;39.33;15.88;;;;;;;6.42;97.76;98859.52;739940;1155;115079;-76
2022/04/06 10:50:15;;;;;;;26.13;13.93;;;;;;;6.47;98.77;98842.48;739821;1153;115318;-76
2022/04/06 11:05:41;;;;;;;26.35;14.93;;;;;;;6.50;99.75;98829.16;739897;1153;114110;-74
2022/04/06 11:20:45;;;;;;;26.80;13.73;;;;;;;6.65;100.00;98836.49;740286;1152;115314;-77
2022/04/06 11:35:47;;;;;;;30.73;16.80;;;;;;;6.91;100.00;98812.34;740514;1153;114795;-79
2022/04/06 11:50:50;;;;;;;41.00;23.90;;;;;;;7.25;100.00;98804.67;740282;1153;114970;-78
2022/04/06 12:05:52;;;;;;;23.35;15.18;;;;;;;7.30;100.00;98802.44;740262;1155;115767;-77
2022/04/06 12:20:55;;;;;;;28.07;18.47;;;;;;;7.92;100.00;98788.52;739786;1155;114677;-78
2022/04/06 12:36:19;;;;;;;30.40;18.30;;;;;;;8.45;100.00;98768.36;740786;1152;114648;-79
2022/04/06 12:51:23;;;;;;;29.27;18.53;;;;;;;9.70;100.00;98746.53;741407;1152;114156;-77
2022/04/06 13:06:26;;;;;;;25.10;16.70;;;;;;;10.64;100.00;98735.37;740716;1155;115733;-79
2022/04/06 13:21:33;;;;;;;35.00;19.98;;;;;;;10.65;100.00;98714.21;740094;1153;115377;-77
2022/04/06 13:36:36;;;;;;;34.35;20.40;;;;;;;10.57;100.00;98721.30;739697;1152;116034;-77
2022/04/06 13:51:39;;;;;;;46.40;25.08;;;;;;;10.64;100.00;98693.41;739158;1154;116000;-77
2022/04/06 14:06:42;;;;;;;31.30;18.65;;;;;;;10.91;100.00;98693.86;740211;1153;114364;-78
2022/04/06 14:21:47;;;;;;;27.28;16.28;;;;;;;11.17;100.00;98682.98;739924;1153;114493;-78
2022/04/06 14:36:51;;;;;;;27.93;15.47;;;;;;;11.29;100.00;98680.73;741134;1153;115968;-75
2022/04/06 14:51:55;;;;;;;98.53;33.70;;;;;;;11.39;100.00;98662.92;740670;1153;114458;-75
2022/04/06 15:06:58;;;;;;;35.55;18.78;;;;;;;11.57;100.00;98661.74;739759;1153;114595;-75
2022/04/06 15:22:02;;;;;;;28.60;16.73;;;;;;;11.64;100.00;98652.96;740634;1153;115536;-76
2022/04/06 15:37:24;;;;;;;45.40;20.70;;;;;;;11.70;100.00;98653.23;740626;1153;115769;-76
2022/04/06 15:52:27;;;;;;;34.50;16.50;;;;;;;11.61;100.00;98631.49;740306;1154;114769;-75
2022/04/06 16:07:30;;;;;;;30.65;17.43;;;;;;;11.58;100.00;98639.75;740465;1155;115904;-74
2022/04/06 16:22:34;;;;;;;44.10;24.38;;;;;;;11.49;100.00;98639.84;740040;1155;115304;-75
2022/04/06 16:37:38;;;;;;;28.70;15.48;;;;;;;11.44;100.00;98642.20;739987;1153;115071;-76
2022/04/06 16:52:43;;;;;;;91.58;36.78;;;;;;;11.42;100.00;98640.75;739748;1153;115495;-74
2022/04/06 17:07:48;;;;;;;54.15;27.93;;;;;;;11.41;100.00;98625.98;740243;1154;114894;-85
2022/04/06 17:22:50;;;;;;;39.10;20.40;;;;;;;11.39;100.00;98628.80;739502;1154;115815;-85
2022/04/06 17:37:53;;;;;;;38.60;18.68;;;;;;;11.41;100.00;98618.11;740225;1154;115073;-84
2022/04/06 17:52:56;;;;;;;39.00;17.63;;;;;;;11.43;100.00;98621.38;740102;1155;115263;-85
2022/04/06 18:07:59;;;;;;;33.20;16.65;;;;;;;11.39;100.00;98634.05;740233;1155;114521;-85
2022/04/06 18:23:03;;;;;;;26.10;15.58;;;;;;;11.38;100.00;98634.23;744854;1155;115861;-84
2022/04/06 18:38:06;;;;;;;31.03;16.17;;;;;;;11.32;100.00;98630.49;740811;1155;115588;-84
2022/04/06 18:53:09;;;;;;;28.68;16.50;;;;;;;11.39;100.00;98626.17;740168;1154;115266;-85
2022/04/06 19:08:13;;;;;;;29.68;15.40;;;;;;;11.48;100.00;98640.84;740229;1155;114432;-86
2022/04/06 19:23:17;;;;;;;35.65;16.63;;;;;;;11.55;100.00;98626.98;740456;1155;114847;-86
2022/04/06 19:38:21;;;;;;;24.63;15.20;;;;;;;11.51;99.77;98623.06;739981;1155;114489;-86
2022/04/06 19:53:24;;;;;;;27.80;15.55;;;;;;;11.42;99.62;98620.55;739922;1155;114233;-86
2022/04/06 20:08:26;;;;;;;27.03;14.43;;;;;;;11.33;99.61;98598.00;740165;1155;114284;-87
2022/04/06 20:23:33;;;;;;;25.65;14.13;;;;;;;11.28;98.70;98582.81;740256;1155;115102;-85
2022/04/06 20:38:41;;;;;;;26.18;14.15;;;;;;;11.17;97.84;98574.58;739964;1154;115899;-79
2022/04/06 20:53:44;;;;;;;22.53;13.53;;;;;;;11.20;96.75;98561.08;739937;1154;115547;-77
2022/04/06 21:08:46;;;;;;;21.68;12.78;;;;;;;11.26;96.03;98557.73;739752;1155;115749;-78
2022/04/06 21:23:49;;;;;;;24.38;12.83;;;;;;;11.21;95.30;98555.64;739439;1155;115927;-79
2022/04/06 21:38:51;;;;;;;23.30;11.68;;;;;;;11.11;94.80;98536.72;739560;1155;115736;-79
2022/04/06 21:53:54;;;;;;;23.00;11.15;;;;;;;10.97;94.97;98520.80;743647;1155;114829;-78
2022/04/06 22:08:56;;;;;;;20.45;11.48;;;;;;;10.93;95.39;98511.67;739827;1154;114429;-80
2022/04/06 22:23:58;;;;;;;19.65;11.50;;;;;;;11.03;96.25;98506.14;740445;1155;115537;-79
2022/04/06 22:39:02;;;;;;;22.33;11.75;;;;;;;11.19;95.06;98489.41;738775;1155;114708;-77
2022/04/06 22:54:08;;;;;;;21.25;11.95;;;;;;;11.07;94.13;98486.44;739294;1155;115852;-79
2022/04/06 23:09:10;;;;;;;22.85;11.75;;;;;;;10.92;93.96;98480.38;739992;1155;115874;-78
2022/04/06 23:24:12;;;;;;;15.20;10.58;;;;;;;10.88;93.00;98460.75;740148;1153;115676;-78
2022/04/06 23:39:14;;;;;;;23.40;11.73;;;;;;;10.96;92.31;98458.03;739526;1155;115490;-79
2022/04/06 23:54:16;;;;;;;20.28;11.30;;;;;;;11.05;91.60;98446.44;739486;1155;114813;-78
